createdAt,value
2019-02-17T00:02:00.012Z,42.23
2019-02-17T00:04:29.680Z,41.23
2019-02-17T00:06:59.339Z,41.63
2019-02-17T00:09:29.107Z,41.33
2019-02-17T00:11:58.832Z,41.43
2019-02-17T00:14:29.076Z,40.90
2019-02-17T00:16:59.367Z,42.30
2019-02-17T00:19:31.764Z,40.83
2019-02-17T00:22:02.899Z,41.43
2019-02-17T00:24:32.801Z,40.97
2019-02-17T00:27:04.087Z,41.40
2019-02-17T00:29:33.862Z,41.17
2019-02-17T00:32:03.552Z,40.97
2019-02-17T00:34:35.219Z,40.70
2019-02-17T00:37:05.208Z,39.73
2019-02-17T00:39:34.933Z,40.90
2019-02-17T00:42:04.657Z,40.47
2019-02-17T00:44:34.426Z,40.30
2019-02-17T00:47:05.468Z,41.53
2019-02-17T00:49:35.198Z,40.43
2019-02-17T00:52:04.890Z,40.30
2019-02-17T00:54:34.672Z,40.93
2019-02-17T00:57:04.349Z,40.50
2019-02-17T00:59:34.033Z,40.10
2019-02-17T01:02:03.793Z,40.33
2019-02-17T01:04:33.466Z,39.83
2019-02-17T01:07:03.149Z,40.37
2019-02-17T01:09:32.885Z,41.47
2019-02-17T01:12:02.615Z,40.33
2019-02-17T01:14:32.327Z,39.87
2019-02-17T01:17:03.240Z,40.03
2019-02-17T01:19:32.895Z,40.77
2019-02-17T01:22:02.565Z,39.90
2019-02-17T01:24:32.276Z,40.27
2019-02-17T01:27:04.137Z,40.17
2019-02-17T01:29:33.817Z,41.47
2019-02-17T01:32:03.576Z,40.53
2019-02-17T01:34:33.273Z,40.73
2019-02-17T01:37:03.093Z,41.03
2019-02-17T01:39:32.804Z,40.33
2019-02-17T01:42:04.140Z,40.93
2019-02-17T01:44:33.872Z,40.27
2019-02-17T01:47:05.074Z,40.90
2019-02-17T01:49:34.759Z,40.30
2019-02-17T01:52:04.498Z,40.50
2019-02-17T01:54:35.698Z,40.73
2019-02-17T01:57:05.445Z,40.37
2019-02-17T01:59:35.197Z,41.13
2019-02-17T02:02:06.540Z,41.00
2019-02-17T02:04:37.210Z,41.20
2019-02-17T02:07:06.953Z,41.57
2019-02-17T02:09:36.653Z,41.67
2019-02-17T02:12:06.898Z,40.93
2019-02-17T02:14:36.575Z,41.57
2019-02-17T02:17:09.859Z,41.83
2019-02-17T02:19:39.657Z,41.97
2019-02-17T02:22:09.341Z,41.70
2019-02-17T02:24:40.088Z,42.13
2019-02-17T02:27:09.778Z,42.20
2019-02-17T02:29:41.346Z,43.13
2019-02-17T02:32:10.857Z,42.80
2019-02-17T02:34:40.526Z,43.07
2019-02-17T02:37:10.194Z,43.17
2019-02-17T02:39:40.366Z,42.20
2019-02-17T02:42:10.382Z,42.43
2019-02-17T02:44:40.116Z,43.23
2019-02-17T02:47:09.813Z,42.30
2019-02-17T02:49:39.597Z,41.60
2019-02-17T02:52:09.274Z,42.47
2019-02-17T02:54:40.121Z,42.50
2019-02-17T02:57:09.792Z,42.83
2019-02-17T02:59:39.466Z,43.93
2019-02-17T03:02:09.240Z,44.07
2019-02-17T03:04:38.907Z,44.73
2019-02-17T03:07:08.932Z,44.97
2019-02-17T03:09:38.636Z,44.37
2019-02-17T03:12:08.432Z,45.17
2019-02-17T03:14:38.142Z,46.27
2019-02-17T03:17:07.946Z,46.97
2019-02-17T03:19:37.616Z,47.33
2019-02-17T03:22:07.292Z,48.43
2019-02-17T03:24:37.086Z,48.10
2019-02-17T03:27:27.482Z,48.87
2019-02-17T03:30:04.938Z,48.57
2019-02-17T03:32:47.873Z,50.10
2019-02-17T03:35:17.569Z,49.33
2019-02-17T03:37:47.338Z,49.17
2019-02-17T03:40:17.007Z,49.33
2019-02-17T03:42:46.699Z,49.77
2019-02-17T03:45:16.369Z,50.07
2019-02-17T03:47:46.030Z,49.50
2019-02-17T03:50:15.748Z,48.37
2019-02-17T03:52:45.411Z,48.60
2019-02-17T03:55:15.175Z,48.47
2019-02-17T03:57:44.953Z,46.67
2019-02-17T04:00:17.239Z,47.37
2019-02-17T04:02:46.105Z,46.70
2019-02-17T04:05:15.807Z,46.73
2019-02-17T04:07:45.485Z,46.63
2019-02-17T04:10:15.195Z,46.70
2019-02-17T04:12:46.574Z,46.80
2019-02-17T04:15:16.320Z,46.57
2019-02-17T04:17:45.993Z,47.03
2019-02-17T04:20:15.693Z,47.23
2019-02-17T04:22:45.783Z,47.30
2019-02-17T04:25:15.459Z,46.60
2019-02-17T04:27:45.141Z,47.63
2019-02-17T04:30:14.815Z,47.67
2019-02-17T04:32:44.493Z,47.90
2019-02-17T04:35:14.185Z,47.83
2019-02-17T04:37:43.872Z,48.43
2019-02-17T04:40:13.711Z,48.87
2019-02-17T04:42:44.021Z,48.17
2019-02-17T04:45:14.492Z,48.33
2019-02-17T04:47:44.192Z,49.43
2019-02-17T04:50:13.893Z,48.13
2019-02-17T04:52:43.554Z,48.43
2019-02-17T04:55:13.215Z,49.90
2019-02-17T04:57:43.347Z,50.43
2019-02-17T05:00:13.037Z,49.43
2019-02-17T05:02:42.711Z,49.50
2019-02-17T05:05:12.401Z,49.37
2019-02-17T05:08:01.352Z,49.23
2019-02-17T05:10:31.048Z,48.60
2019-02-17T05:13:00.711Z,49.70
2019-02-17T05:15:30.369Z,49.43
2019-02-17T05:18:00.065Z,50.20
2019-02-17T05:20:29.815Z,49.67
2019-02-17T05:22:59.499Z,50.00
2019-02-17T05:25:29.189Z,49.90
2019-02-17T05:27:58.863Z,49.43
2019-02-17T05:30:28.633Z,49.87
2019-02-17T05:32:58.321Z,50.07
2019-02-17T05:35:27.999Z,49.73
2019-02-17T05:37:57.651Z,49.73
2019-02-17T05:40:27.363Z,47.97
2019-02-17T05:42:57.028Z,50.00
2019-02-17T05:45:26.717Z,49.13
2019-02-17T05:47:56.695Z,50.20
2019-02-17T05:50:26.367Z,49.60
2019-02-17T05:52:56.099Z,48.87
2019-02-17T05:55:25.779Z,49.17
2019-02-17T05:57:55.537Z,49.20
2019-02-17T06:00:26.307Z,49.87
2019-02-17T06:02:56.063Z,49.50
2019-02-17T06:05:25.731Z,49.50
2019-02-17T06:08:14.764Z,49.00
2019-02-17T06:10:44.432Z,49.43
2019-02-17T06:13:15.509Z,50.73
2019-02-17T06:15:45.811Z,49.90
2019-02-17T06:18:36.105Z,49.07
2019-02-17T06:21:05.789Z,49.57
2019-02-17T06:23:37.085Z,49.17
2019-02-17T06:26:08.181Z,49.27
2019-02-17T06:28:39.332Z,49.80
2019-02-17T06:31:14.311Z,51.27
2019-02-17T06:33:41.543Z,49.97
2019-02-17T06:36:11.225Z,49.43
2019-02-17T06:38:40.893Z,49.80
2019-02-17T06:41:12.023Z,50.33
2019-02-17T06:43:41.719Z,49.30
2019-02-17T06:46:13.017Z,48.23
2019-02-17T06:48:42.678Z,49.90
2019-02-17T06:51:12.375Z,50.33
2019-02-17T06:53:42.038Z,50.23
2019-02-17T06:56:31.524Z,51.43
2019-02-17T06:59:01.192Z,51.03
2019-02-17T07:01:30.933Z,50.53
2019-02-17T07:04:01.021Z,50.57
2019-02-17T07:06:42.715Z,51.10
2019-02-17T07:09:12.431Z,51.37
2019-02-17T07:11:42.294Z,50.70
2019-02-17T07:14:12.443Z,50.80
2019-02-17T07:16:42.284Z,49.80
2019-02-17T07:19:12.059Z,50.30
2019-02-17T07:21:41.723Z,51.30
2019-02-17T07:24:11.407Z,51.17
2019-02-17T07:26:41.077Z,50.90
2019-02-17T07:29:10.752Z,50.57
2019-02-17T07:31:41.869Z,50.00
2019-02-17T07:34:11.534Z,50.17
2019-02-17T07:36:42.837Z,51.33
2019-02-17T07:39:12.534Z,51.87
2019-02-17T07:41:42.278Z,51.07
2019-02-17T07:44:11.939Z,50.73
2019-02-17T07:46:41.614Z,51.97
2019-02-17T07:49:12.484Z,51.93
2019-02-17T07:51:42.166Z,51.60
2019-02-17T07:54:12.915Z,50.53
2019-02-17T07:56:42.593Z,52.37
2019-02-17T07:59:13.758Z,51.87
2019-02-17T08:01:45.569Z,52.10
2019-02-17T08:04:17.664Z,53.57
2019-02-17T08:06:47.321Z,53.67
2019-02-17T08:09:17.011Z,51.97
2019-02-17T08:11:46.677Z,53.97
2019-02-17T08:14:17.985Z,52.37
2019-02-17T08:16:47.684Z,52.07
2019-02-17T08:19:17.438Z,52.73
2019-02-17T08:21:47.107Z,52.97
2019-02-17T08:24:16.881Z,53.37
2019-02-17T08:26:48.192Z,52.63
2019-02-17T08:29:17.859Z,52.50
2019-02-17T08:31:55.545Z,53.80
2019-02-17T08:34:18.965Z,53.87
2019-02-17T08:36:48.633Z,54.63
2019-02-17T08:39:18.315Z,53.30
2019-02-17T08:41:47.997Z,52.30
2019-02-17T08:44:17.684Z,52.53
2019-02-17T08:46:47.375Z,52.40
2019-02-17T08:49:17.027Z,53.53
2019-02-17T08:51:46.714Z,52.00
2019-02-17T08:54:16.351Z,54.30
2019-02-17T08:56:46.308Z,51.63
2019-02-17T08:59:16.054Z,51.80
2019-02-17T09:01:46.456Z,51.67
2019-02-17T09:04:16.114Z,52.50
2019-02-17T09:06:48.892Z,51.83
2019-02-17T09:09:18.584Z,51.80
2019-02-17T09:11:49.184Z,53.10
2019-02-17T09:14:20.341Z,51.87
2019-02-17T09:16:50.069Z,51.57
2019-02-17T09:19:19.794Z,51.67
2019-02-17T09:21:49.528Z,50.63
2019-02-17T09:24:19.259Z,50.13
2019-02-17T09:26:50.577Z,51.90
2019-02-17T09:29:20.357Z,50.47
2019-02-17T09:31:50.048Z,51.20
2019-02-17T09:34:19.733Z,49.30
2019-02-17T09:36:55.595Z,49.10
2019-02-17T09:39:25.286Z,50.73
2019-02-17T09:41:54.950Z,50.90
2019-02-17T09:44:24.660Z,49.33
2019-02-17T09:46:54.337Z,49.70
2019-02-17T09:49:24.814Z,49.63
2019-02-17T09:51:55.984Z,49.23
2019-02-17T09:54:25.705Z,49.23
2019-02-17T09:56:56.470Z,48.47
2019-02-17T09:59:26.167Z,48.10
2019-02-17T10:01:56.168Z,48.40
2019-02-17T10:04:26.076Z,48.83
2019-02-17T10:06:55.828Z,48.53
2019-02-17T10:09:25.506Z,47.73
2019-02-17T10:11:55.270Z,48.13
2019-02-17T10:14:26.629Z,47.87
2019-02-17T10:16:56.300Z,47.80
2019-02-17T10:19:26.002Z,47.67
2019-02-17T10:21:55.722Z,46.97
2019-02-17T10:24:25.460Z,48.27
2019-02-17T10:26:55.181Z,48.10
2019-02-17T10:29:24.850Z,48.43
2019-02-17T10:31:54.528Z,47.83
2019-02-17T10:34:24.311Z,46.80
2019-02-17T10:36:54.026Z,47.23
2019-02-17T10:39:23.716Z,46.67
2019-02-17T10:41:53.399Z,47.70
2019-02-17T10:44:23.097Z,47.03
2019-02-17T10:46:54.282Z,47.07
2019-02-17T10:49:23.944Z,46.57
2019-02-17T10:51:55.165Z,46.93
2019-02-17T10:54:24.843Z,47.27
2019-02-17T10:56:54.518Z,47.67
2019-02-17T10:59:24.390Z,46.97
2019-02-17T11:01:54.342Z,47.30
2019-02-17T11:04:24.029Z,46.77
2019-02-17T11:06:53.722Z,47.17
2019-02-17T11:09:23.785Z,46.37
2019-02-17T11:11:53.485Z,47.20
2019-02-17T11:14:23.250Z,46.67
2019-02-17T11:16:53.023Z,46.37
2019-02-17T11:19:22.699Z,46.60
2019-02-17T11:21:52.537Z,47.57
2019-02-17T11:24:22.213Z,47.17
2019-02-17T11:26:51.956Z,47.27
2019-02-17T11:29:21.818Z,46.57
2019-02-17T11:31:51.504Z,47.17
2019-02-17T11:34:21.182Z,46.47
2019-02-17T11:36:50.887Z,45.63
2019-02-17T11:39:20.729Z,45.33
2019-02-17T11:41:50.428Z,45.87
2019-02-17T11:44:20.191Z,46.20
2019-02-17T11:46:49.968Z,45.60
2019-02-17T11:49:19.966Z,45.43
2019-02-17T11:51:53.936Z,44.90
2019-02-17T11:54:23.594Z,44.90
2019-02-17T11:56:53.606Z,45.63
2019-02-17T11:59:23.310Z,44.73
2019-02-17T12:01:59.916Z,44.37
2019-02-17T12:04:29.649Z,44.80
2019-02-17T12:07:04.457Z,44.90
2019-02-17T12:09:34.120Z,45.17
2019-02-17T12:12:03.833Z,44.23
2019-02-17T12:14:34.391Z,45.60
2019-02-17T12:17:03.944Z,43.43
2019-02-17T12:19:33.709Z,43.43
2019-02-17T12:22:09.647Z,43.73
2019-02-17T12:24:40.960Z,44.43
2019-02-17T12:27:12.364Z,43.73
2019-02-17T12:29:46.699Z,44.37
2019-02-17T12:32:19.646Z,43.03
2019-02-17T12:34:49.342Z,44.07
2019-02-17T12:37:19.117Z,43.60
2019-02-17T12:39:49.014Z,44.33
2019-02-17T12:42:18.800Z,43.40
2019-02-17T12:44:51.306Z,43.57
2019-02-17T12:47:20.984Z,43.20
2019-02-17T12:49:50.838Z,43.33
2019-02-17T12:52:21.725Z,42.83
2019-02-17T12:54:51.388Z,43.30
2019-02-17T12:57:21.055Z,43.50
2019-02-17T12:59:50.752Z,44.93
2019-02-17T13:02:22.296Z,43.07
2019-02-17T13:04:51.971Z,43.87
2019-02-17T13:07:21.683Z,42.67
2019-02-17T13:09:51.375Z,43.43
2019-02-17T13:12:21.303Z,43.03
2019-02-17T13:14:50.983Z,42.73
2019-02-17T13:17:20.677Z,42.63
2019-02-17T13:19:50.335Z,43.73
2019-02-17T13:22:20.101Z,42.87
2019-02-17T13:24:53.943Z,42.50
2019-02-17T13:27:23.612Z,42.93
2019-02-17T13:29:53.398Z,43.00
2019-02-17T13:32:23.142Z,42.50
2019-02-17T13:34:52.805Z,43.33
2019-02-17T13:37:22.556Z,42.80
2019-02-17T13:39:52.219Z,44.83
2019-02-17T13:42:25.103Z,43.00
2019-02-17T13:44:54.868Z,42.97
2019-02-17T13:47:24.555Z,43.33
2019-02-17T13:49:55.746Z,45.17
2019-02-17T13:52:25.451Z,43.57
2019-02-17T13:54:56.488Z,43.87
2019-02-17T13:57:33.649Z,43.47
2019-02-17T14:00:03.992Z,42.97
2019-02-17T14:02:33.688Z,41.90
2019-02-17T14:05:03.396Z,43.07
2019-02-17T14:07:33.137Z,43.30
2019-02-17T14:10:02.814Z,42.93
2019-02-17T14:12:32.503Z,42.93
2019-02-17T14:15:02.254Z,42.03
2019-02-17T14:17:32.025Z,42.40
2019-02-17T14:20:01.790Z,42.00
2019-02-17T14:22:31.448Z,41.77
2019-02-17T14:25:01.184Z,41.97
2019-02-17T14:27:30.934Z,43.27
2019-02-17T14:30:00.666Z,42.67
2019-02-17T14:32:30.405Z,43.00
2019-02-17T14:35:01.892Z,43.17
2019-02-17T14:37:31.580Z,41.87
2019-02-17T14:40:01.242Z,41.80
2019-02-17T14:42:35.203Z,42.10
2019-02-17T14:45:08.291Z,42.10
2019-02-17T14:47:38.795Z,42.50
2019-02-17T14:50:10.277Z,42.17
2019-02-17T14:52:39.953Z,42.57
2019-02-17T14:55:11.666Z,43.37
2019-02-17T14:57:41.333Z,43.47
2019-02-17T15:00:16.668Z,42.70
2019-02-17T15:02:46.341Z,42.13
2019-02-17T15:05:16.234Z,42.90
2019-02-17T15:07:46.007Z,43.60
2019-02-17T15:10:15.974Z,42.83
2019-02-17T15:12:45.809Z,43.47
2019-02-17T15:15:19.058Z,42.87
2019-02-17T15:17:50.409Z,43.97
2019-02-17T15:20:26.593Z,43.27
2019-02-17T15:22:56.326Z,44.07
2019-02-17T15:25:26.008Z,42.73
2019-02-17T15:27:55.760Z,42.60
2019-02-17T15:30:25.451Z,43.80
2019-02-17T15:33:03.550Z,43.53
2019-02-17T15:35:26.542Z,43.63
2019-02-17T15:37:56.682Z,43.53
2019-02-17T15:40:26.422Z,43.40
2019-02-17T15:42:56.130Z,42.97
2019-02-17T15:45:25.810Z,45.00
2019-02-17T15:47:55.490Z,45.20
2019-02-17T15:50:25.201Z,44.47
2019-02-17T15:52:56.437Z,45.23
2019-02-17T15:55:26.211Z,45.13
2019-02-17T15:57:57.544Z,46.70
2019-02-17T16:00:27.463Z,44.17
2019-02-17T16:02:57.214Z,44.17
2019-02-17T16:05:26.955Z,44.20
2019-02-17T16:07:56.689Z,44.63
2019-02-17T16:10:28.047Z,44.20
2019-02-17T16:12:58.962Z,44.50
2019-02-17T16:15:28.715Z,43.73
2019-02-17T16:17:58.367Z,44.37
2019-02-17T16:20:28.140Z,44.07
2019-02-17T16:22:57.887Z,45.30
2019-02-17T16:25:27.527Z,45.77
2019-02-17T16:27:57.223Z,45.83
2019-02-17T16:30:27.091Z,44.37
2019-02-17T16:32:57.182Z,43.77
2019-02-17T16:35:27.064Z,42.70
2019-02-17T16:37:56.722Z,44.10
2019-02-17T16:40:26.558Z,45.33
2019-02-17T16:42:57.227Z,44.63
2019-02-17T16:45:27.048Z,44.43
2019-02-17T16:47:57.575Z,43.60
2019-02-17T16:50:33.319Z,54.20
2019-02-17T16:53:04.296Z,47.17
2019-02-17T16:55:33.969Z,45.13
2019-02-17T16:58:03.725Z,44.37
2019-02-17T17:00:33.428Z,43.87
2019-02-17T17:03:03.155Z,44.00
2019-02-17T17:05:32.921Z,44.93
2019-02-17T17:08:02.581Z,43.07
2019-02-17T17:10:32.259Z,42.83
2019-02-17T17:13:01.966Z,43.17
2019-02-17T17:15:31.698Z,43.23
2019-02-17T17:18:01.578Z,42.73
2019-02-17T17:20:50.552Z,43.50
2019-02-17T17:23:20.409Z,42.67
2019-02-17T17:25:50.404Z,42.77
2019-02-17T17:28:20.416Z,43.13
2019-02-17T17:30:50.077Z,42.90
2019-02-17T17:33:19.833Z,42.53
2019-02-17T17:35:49.602Z,42.90
2019-02-17T17:38:19.320Z,42.50
2019-02-17T17:40:49.053Z,42.00
2019-02-17T17:43:18.753Z,42.60
2019-02-17T17:45:48.503Z,41.97
2019-02-17T17:48:18.294Z,42.70
2019-02-17T17:50:48.033Z,42.90
2019-02-17T17:53:17.890Z,42.40
2019-02-17T17:55:49.148Z,42.57
2019-02-17T17:58:18.960Z,42.77
2019-02-17T18:00:48.708Z,42.80
2019-02-17T18:03:18.390Z,42.07
2019-02-17T18:05:48.093Z,42.70
2019-02-17T18:08:17.857Z,42.67
2019-02-17T18:10:47.536Z,42.27
2019-02-17T18:13:18.890Z,43.10
2019-02-17T18:15:48.556Z,43.27
2019-02-17T18:18:18.238Z,42.07
2019-02-17T18:21:07.112Z,42.70
2019-02-17T18:23:36.784Z,43.50
2019-02-17T18:26:06.778Z,42.37
2019-02-17T18:28:37.265Z,42.30
2019-02-17T18:31:07.068Z,42.43
2019-02-17T18:33:38.928Z,41.53
2019-02-17T18:36:27.783Z,41.43
2019-02-17T18:38:57.536Z,41.00
2019-02-17T18:41:27.308Z,40.83
2019-02-17T18:43:57.811Z,41.60
2019-02-17T18:46:27.480Z,41.23
2019-02-17T18:48:58.383Z,41.60
2019-02-17T18:51:28.155Z,40.57
2019-02-17T18:53:57.954Z,40.97
2019-02-17T18:56:27.618Z,41.37
2019-02-17T18:58:57.396Z,41.60
2019-02-17T19:01:27.068Z,40.87
2019-02-17T19:03:56.799Z,40.83
2019-02-17T19:06:26.502Z,40.60
2019-02-17T19:08:57.475Z,40.80
2019-02-17T19:11:27.138Z,41.20
2019-02-17T19:14:16.106Z,40.37
2019-02-17T19:16:45.838Z,41.27
2019-02-17T19:19:15.592Z,41.03
2019-02-17T19:21:45.375Z,40.63
2019-02-17T19:24:15.046Z,40.80
2019-02-17T19:26:44.786Z,40.90
2019-02-17T19:29:16.471Z,40.37
2019-02-17T19:31:46.136Z,41.73
2019-02-17T19:34:16.041Z,40.60
2019-02-17T19:36:46.059Z,40.77
2019-02-17T19:39:18.520Z,40.77
2019-02-17T19:41:51.546Z,40.50
2019-02-17T19:44:21.248Z,39.97
2019-02-17T19:46:51.134Z,41.53
2019-02-17T19:49:20.848Z,39.90
2019-02-17T19:51:50.522Z,41.20
2019-02-17T19:54:20.278Z,42.43
2019-02-17T19:56:50.018Z,41.33
2019-02-17T19:59:19.721Z,40.83
2019-02-17T20:01:50.341Z,40.97
2019-02-17T20:04:21.657Z,40.90
2019-02-17T20:06:52.869Z,41.00
2019-02-17T20:09:22.533Z,40.87
2019-02-17T20:11:52.496Z,41.43
2019-02-17T20:14:23.742Z,40.93
2019-02-17T20:16:53.672Z,41.70
2019-02-17T20:19:25.619Z,40.50
2019-02-17T20:21:55.299Z,41.17
2019-02-17T20:24:24.982Z,40.73
2019-02-17T20:26:54.653Z,39.97
2019-02-17T20:29:24.361Z,41.23
2019-02-17T20:31:54.112Z,40.63
2019-02-17T20:34:23.812Z,40.10
2019-02-17T20:36:53.644Z,40.40
2019-02-17T20:39:23.378Z,40.63
2019-02-17T20:41:53.079Z,42.27
2019-02-17T20:44:22.765Z,39.90
2019-02-17T20:46:52.444Z,40.83
2019-02-17T20:49:22.113Z,40.47
2019-02-17T20:51:51.887Z,40.30
2019-02-17T20:54:21.699Z,40.70
2019-02-17T20:56:51.368Z,40.73
2019-02-17T20:59:21.470Z,41.07
2019-02-17T21:01:51.144Z,41.07
2019-02-17T21:04:20.914Z,41.33
2019-02-17T21:06:50.674Z,40.13
2019-02-17T21:09:20.411Z,40.10
2019-02-17T21:11:55.546Z,41.93
2019-02-17T21:14:44.562Z,41.17
2019-02-17T21:17:14.243Z,39.97
2019-02-17T21:19:44.396Z,40.73
2019-02-17T21:22:14.353Z,40.97
2019-02-17T21:24:44.486Z,40.47
2019-02-17T21:27:14.971Z,40.80
2019-02-17T21:29:44.763Z,41.17
2019-02-17T21:32:14.438Z,41.33
2019-02-17T21:34:44.118Z,39.90
2019-02-17T21:37:13.813Z,40.83
2019-02-17T21:39:43.495Z,40.43
2019-02-17T21:42:13.188Z,40.20
2019-02-17T21:44:42.874Z,40.57
2019-02-17T21:47:12.597Z,40.63
2019-02-17T21:49:43.765Z,40.80
2019-02-17T21:52:13.441Z,40.57
2019-02-17T21:55:02.454Z,40.63
2019-02-17T21:57:32.139Z,40.90
2019-02-17T22:00:01.810Z,40.00
2019-02-17T22:02:31.471Z,40.30
2019-02-17T22:05:01.264Z,40.17
2019-02-17T22:07:31.270Z,40.83
2019-02-17T22:10:01.291Z,40.60
2019-02-17T22:12:31.114Z,40.47
2019-02-17T22:15:03.116Z,41.00
2019-02-17T22:17:32.785Z,40.60
2019-02-17T22:20:02.490Z,41.23
2019-02-17T22:22:32.151Z,40.23
2019-02-17T22:25:01.852Z,40.63
2019-02-17T22:27:31.546Z,40.37
2019-02-17T22:30:01.232Z,40.30
2019-02-17T22:32:32.435Z,39.40
2019-02-17T22:35:02.150Z,39.43
2019-02-17T22:37:32.320Z,39.97
2019-02-17T22:40:03.690Z,41.27
2019-02-17T22:42:33.378Z,40.07
2019-02-17T22:45:05.766Z,40.00
2019-02-17T22:47:35.435Z,39.40
2019-02-17T22:50:08.506Z,39.77
2019-02-17T22:52:38.220Z,39.87
2019-02-17T22:55:13.478Z,39.73
2019-02-17T22:57:45.458Z,39.67
2019-02-17T23:00:47.768Z,38.57
2019-02-17T23:03:17.590Z,38.93
2019-02-17T23:05:47.649Z,39.57
2019-02-17T23:08:17.347Z,38.70
2019-02-17T23:10:48.720Z,38.77
2019-02-17T23:13:18.467Z,38.80
2019-02-17T23:15:49.419Z,39.47
2019-02-17T23:18:19.120Z,39.70
2019-02-17T23:20:48.788Z,39.13
2019-02-17T23:23:18.796Z,40.00
2019-02-17T23:25:48.335Z,39.23
2019-02-17T23:28:18.086Z,39.23
2019-02-17T23:30:47.750Z,39.70
2019-02-17T23:33:17.459Z,39.53
2019-02-17T23:35:47.204Z,39.97
2019-02-17T23:38:16.880Z,39.17
2019-02-17T23:40:46.582Z,39.27
2019-02-17T23:43:17.753Z,39.07
2019-02-17T23:45:47.492Z,39.43
2019-02-17T23:48:17.852Z,39.00
2019-02-17T23:50:47.583Z,39.63
2019-02-17T23:53:18.719Z,39.13
2019-02-17T23:55:49.876Z,39.37
2019-02-17T23:58:19.642Z,38.67
